createdAt,value
2018-04-24T00:00:20.714Z,5.20
2018-04-24T00:02:48.355Z,3.90
2018-04-24T00:05:15.931Z,3.97
2018-04-24T00:07:43.412Z,4.20
2018-04-24T00:10:11.934Z,3.90
2018-04-24T00:12:39.382Z,6.23
2018-04-24T00:15:06.837Z,3.80
2018-04-24T00:17:34.339Z,4.70
2018-04-24T00:20:01.852Z,3.93
2018-04-24T00:22:29.327Z,3.57
2018-04-24T00:24:56.773Z,4.93
2018-04-24T00:27:24.239Z,3.80
2018-04-24T00:29:51.771Z,3.60
2018-04-24T00:32:19.214Z,4.87
2018-04-24T00:34:47.459Z,4.30
2018-04-24T00:37:15.019Z,5.10
2018-04-24T00:39:42.592Z,4.90
2018-04-24T00:42:10.038Z,4.77
2018-04-24T00:44:37.506Z,5.40
2018-04-24T00:47:04.955Z,4.03
2018-04-24T00:49:32.422Z,4.03
2018-04-24T00:51:59.875Z,4.80
2018-04-24T00:54:27.350Z,3.97
2018-04-24T00:56:54.831Z,4.70
2018-04-24T00:59:23.067Z,4.33
2018-04-24T01:01:50.507Z,4.77
2018-04-24T01:04:17.979Z,4.37
2018-04-24T01:06:45.464Z,4.30
2018-04-24T01:09:12.921Z,3.60
2018-04-24T01:11:41.174Z,3.83
2018-04-24T01:14:08.627Z,4.80
2018-04-24T01:16:36.081Z,4.00
2018-04-24T01:19:03.543Z,3.53
2018-04-24T01:21:30.994Z,4.07
2018-04-24T01:23:58.459Z,2.40
2018-04-24T01:26:25.953Z,3.30
2018-04-24T01:28:53.399Z,3.00
2018-04-24T01:31:20.855Z,3.63
2018-04-24T01:33:48.326Z,4.50
2018-04-24T01:36:15.779Z,3.40
2018-04-24T01:38:43.251Z,3.70
2018-04-24T01:41:11.487Z,3.57
2018-04-24T01:43:38.947Z,2.60
2018-04-24T01:46:06.409Z,1.77
2018-04-24T01:48:33.874Z,3.30
2018-04-24T01:51:01.343Z,2.33
2018-04-24T01:53:28.807Z,2.90
2018-04-24T01:55:56.252Z,2.77
2018-04-24T01:58:23.715Z,3.43
2018-04-24T02:00:51.959Z,3.17
2018-04-24T02:03:19.428Z,2.60
2018-04-24T02:05:46.901Z,3.13
2018-04-24T02:08:14.355Z,2.53
2018-04-24T02:10:41.845Z,2.17
2018-04-24T02:13:09.367Z,2.30
2018-04-24T02:15:36.819Z,1.93
2018-04-24T02:18:04.282Z,2.40
2018-04-24T02:20:31.779Z,2.23
2018-04-24T02:22:59.226Z,3.37
2018-04-24T02:25:27.459Z,2.20
2018-04-24T02:27:54.931Z,2.77
2018-04-24T02:30:22.384Z,2.70
2018-04-24T02:32:49.833Z,2.77
2018-04-24T02:35:17.323Z,2.30
2018-04-24T02:37:44.765Z,2.30
2018-04-24T02:40:12.220Z,2.43
2018-04-24T02:42:39.692Z,2.20
2018-04-24T02:45:07.143Z,2.57
2018-04-24T02:47:34.612Z,2.50
2018-04-24T02:50:02.090Z,2.40
2018-04-24T02:52:30.309Z,2.53
2018-04-24T02:54:57.777Z,2.53
2018-04-24T02:57:25.408Z,2.33
2018-04-24T02:59:52.912Z,2.60
2018-04-24T03:02:20.382Z,1.63
2018-04-24T03:04:47.860Z,1.90
2018-04-24T03:07:16.080Z,3.47
2018-04-24T03:09:43.522Z,2.80
2018-04-24T03:12:11.012Z,2.23
2018-04-24T03:14:38.487Z,2.57
2018-04-24T03:17:05.966Z,2.27
2018-04-24T03:19:34.195Z,2.20
2018-04-24T03:22:01.642Z,2.87
2018-04-24T03:24:29.132Z,1.67
2018-04-24T03:26:56.563Z,2.23
2018-04-24T03:29:24.084Z,2.67
2018-04-24T03:31:52.317Z,1.80
2018-04-24T03:34:19.768Z,2.17
2018-04-24T03:36:47.251Z,2.63
2018-04-24T03:39:14.726Z,2.00
2018-04-24T03:41:43.000Z,2.77
2018-04-24T03:44:11.244Z,2.00
2018-04-24T03:46:38.711Z,1.90
2018-04-24T03:49:06.197Z,2.47
2018-04-24T03:51:34.417Z,2.57
2018-04-24T03:54:01.913Z,3.07
2018-04-24T03:56:29.463Z,1.90
2018-04-24T03:58:57.747Z,2.33
2018-04-24T04:01:25.216Z,2.70
2018-04-24T04:03:52.698Z,2.33
2018-04-24T04:06:20.141Z,2.57
2018-04-24T04:08:47.776Z,1.77
2018-04-24T04:11:15.267Z,1.93
2018-04-24T04:13:42.714Z,2.40
2018-04-24T04:16:10.956Z,2.70
2018-04-24T04:18:50.302Z,2.00
2018-04-24T04:21:30.351Z,2.83
2018-04-24T04:24:09.710Z,1.67
2018-04-24T04:26:37.170Z,1.80
2018-04-24T04:29:05.393Z,2.90
2018-04-24T04:31:34.034Z,2.00
2018-04-24T04:34:02.375Z,2.30
2018-04-24T04:36:29.960Z,3.03
2018-04-24T04:38:57.487Z,2.27
2018-04-24T04:41:25.055Z,2.00
2018-04-24T04:43:52.835Z,2.50
2018-04-24T04:46:20.569Z,3.00
2018-04-24T04:48:48.176Z,3.13
2018-04-24T04:51:15.626Z,2.80
2018-04-24T04:53:43.188Z,1.90
2018-04-24T04:56:10.754Z,3.57
2018-04-24T04:58:38.303Z,2.03
2018-04-24T05:01:05.784Z,3.63
2018-04-24T05:03:33.257Z,2.93
2018-04-24T05:06:00.714Z,3.30
2018-04-24T05:08:28.338Z,3.07
2018-04-24T05:10:55.791Z,2.90
2018-04-24T05:13:23.455Z,3.20
2018-04-24T05:15:50.924Z,3.60
2018-04-24T05:18:19.236Z,3.50
2018-04-24T05:20:46.858Z,3.60
2018-04-24T05:23:14.323Z,3.30
2018-04-24T05:25:41.855Z,2.90
2018-04-24T05:28:09.322Z,3.50
2018-04-24T05:30:36.843Z,2.40
2018-04-24T05:33:04.712Z,3.10
2018-04-24T05:35:32.181Z,3.23
2018-04-24T05:37:59.626Z,4.20
2018-04-24T05:40:27.264Z,2.50
2018-04-24T05:42:54.735Z,3.30
2018-04-24T05:45:23.073Z,2.80
2018-04-24T05:47:50.495Z,3.60
2018-04-24T05:50:18.117Z,4.17
2018-04-24T05:52:45.968Z,3.30
2018-04-24T05:55:13.434Z,3.83
2018-04-24T05:57:40.887Z,3.50
2018-04-24T06:00:08.354Z,4.53
2018-04-24T06:02:35.819Z,3.07
2018-04-24T06:05:04.073Z,3.73
2018-04-24T06:07:31.531Z,3.50
2018-04-24T06:09:58.994Z,4.13
2018-04-24T06:12:26.482Z,3.67
2018-04-24T06:14:54.713Z,4.03
2018-04-24T06:17:22.286Z,3.53
2018-04-24T06:19:49.797Z,3.50
2018-04-24T06:22:17.293Z,1.90
2018-04-24T06:24:44.763Z,3.63
2018-04-24T06:27:12.336Z,3.63
2018-04-24T06:29:39.843Z,3.83
2018-04-24T06:32:07.300Z,2.77
2018-04-24T06:34:34.771Z,3.40
2018-04-24T06:37:02.253Z,2.90
2018-04-24T06:39:29.731Z,3.77
2018-04-24T06:41:57.185Z,2.87
2018-04-24T06:44:24.678Z,3.20
2018-04-24T06:46:52.131Z,4.27
2018-04-24T06:49:19.623Z,3.30
2018-04-24T06:51:47.129Z,3.97
2018-04-24T06:54:15.368Z,3.23
2018-04-24T06:56:42.827Z,3.57
2018-04-24T06:59:10.281Z,2.93
2018-04-24T07:01:37.769Z,2.63
2018-04-24T07:04:05.243Z,3.10
2018-04-24T07:06:33.455Z,2.90
2018-04-24T07:09:00.911Z,3.87
2018-04-24T07:11:28.396Z,4.70
2018-04-24T07:13:55.862Z,4.60
2018-04-24T07:16:23.332Z,3.80
2018-04-24T07:18:50.821Z,3.80
2018-04-24T07:21:19.088Z,3.97
2018-04-24T07:23:47.324Z,3.60
2018-04-24T07:26:14.784Z,4.20
2018-04-24T07:28:42.234Z,4.00
2018-04-24T07:31:09.708Z,3.63
2018-04-24T07:33:37.150Z,3.57
2018-04-24T07:36:04.627Z,4.30
2018-04-24T07:38:32.101Z,3.13
2018-04-24T07:40:59.868Z,3.20
2018-04-24T07:43:27.268Z,3.87
2018-04-24T07:45:54.710Z,4.13
2018-04-24T07:48:22.186Z,4.10
2018-04-24T07:50:49.695Z,4.20
2018-04-24T07:53:17.187Z,4.93
2018-04-24T07:55:44.641Z,3.97
2018-04-24T07:58:12.218Z,4.20
2018-04-24T08:00:39.676Z,4.80
2018-04-24T08:03:07.162Z,4.90
2018-04-24T08:05:34.623Z,4.13
2018-04-24T08:08:02.087Z,3.37
2018-04-24T08:10:29.573Z,5.30
2018-04-24T08:12:57.817Z,5.77
2018-04-24T08:15:25.309Z,3.57
2018-04-24T08:17:53.550Z,4.93
2018-04-24T08:20:21.889Z,7.00
2018-04-24T08:22:49.394Z,7.13
2018-04-24T08:25:16.812Z,5.87
2018-04-24T08:27:44.300Z,6.80
2018-04-24T08:30:11.798Z,5.37
2018-04-24T08:32:39.361Z,7.80
2018-04-24T08:35:07.607Z,4.80
2018-04-24T08:37:35.056Z,7.50
2018-04-24T08:40:02.564Z,7.33
2018-04-24T08:42:30.792Z,6.33
2018-04-24T08:44:58.274Z,6.03
2018-04-24T08:47:25.724Z,9.03
2018-04-24T08:49:53.227Z,9.43
2018-04-24T08:52:20.681Z,8.60
2018-04-24T08:54:48.132Z,9.33
2018-04-24T08:57:15.623Z,9.03
2018-04-24T08:59:43.084Z,10.40
2018-04-24T09:02:10.568Z,10.37
2018-04-24T09:04:38.032Z,10.70
2018-04-24T09:07:05.495Z,9.37
2018-04-24T09:09:32.958Z,9.00
2018-04-24T09:12:00.416Z,12.17
2018-04-24T09:14:27.887Z,10.80
2018-04-24T09:16:55.340Z,11.40
2018-04-24T09:19:23.575Z,10.80
2018-04-24T09:21:51.041Z,12.37
2018-04-24T09:24:18.524Z,10.80
2018-04-24T09:26:45.971Z,7.80
2018-04-24T09:29:13.493Z,12.20
2018-04-24T09:31:43.921Z,12.33
2018-04-24T09:34:11.401Z,10.57
2018-04-24T09:36:38.895Z,12.50
2018-04-24T09:39:06.383Z,11.10
2018-04-24T09:41:34.611Z,11.83
2018-04-24T09:44:02.101Z,14.10
2018-04-24T09:46:29.552Z,13.47
2018-04-24T09:48:57.192Z,6.40
2018-04-24T09:51:24.624Z,10.87
2018-04-24T09:53:52.095Z,13.43
2018-04-24T09:56:19.552Z,10.80
2018-04-24T09:58:47.030Z,12.07
2018-04-24T10:01:14.509Z,12.07
2018-04-24T10:03:41.964Z,13.77
2018-04-24T10:06:09.445Z,13.73
2018-04-24T10:08:36.927Z,9.37
2018-04-24T10:11:04.447Z,11.30
2018-04-24T10:13:32.632Z,12.37
2018-04-24T10:16:00.065Z,13.83
2018-04-24T10:18:27.523Z,13.23
2018-04-24T10:20:55.004Z,12.77
2018-04-24T10:23:22.456Z,10.37
2018-04-24T10:25:49.927Z,11.80
2018-04-24T10:28:17.388Z,14.30
2018-04-24T10:30:44.858Z,14.77
2018-04-24T10:33:12.472Z,14.03
2018-04-24T10:35:39.931Z,16.20
2018-04-24T10:38:07.411Z,14.47
2018-04-24T10:40:34.946Z,14.07
2018-04-24T10:43:02.445Z,10.07
2018-04-24T10:45:29.891Z,13.17
2018-04-24T10:47:57.443Z,9.90
2018-04-24T10:50:24.874Z,13.20
2018-04-24T10:52:52.354Z,14.37
2018-04-24T10:55:20.592Z,14.77
2018-04-24T10:57:48.044Z,16.00
2018-04-24T11:00:15.531Z,15.20
2018-04-24T11:02:42.979Z,14.30
2018-04-24T11:05:10.443Z,17.03
2018-04-24T11:07:37.924Z,16.57
2018-04-24T11:10:05.505Z,14.40
2018-04-24T11:12:32.972Z,14.00
2018-04-24T11:15:00.417Z,17.80
2018-04-24T11:17:27.903Z,14.53
2018-04-24T11:19:55.376Z,17.60
2018-04-24T11:22:22.824Z,16.70
2018-04-24T11:24:50.300Z,9.60
2018-04-24T11:27:17.802Z,10.57
2018-04-24T11:29:45.250Z,10.33
2018-04-24T11:32:13.515Z,13.00
2018-04-24T11:34:40.990Z,15.63
2018-04-24T11:37:08.479Z,12.93
2018-04-24T11:39:36.560Z,15.97
2018-04-24T11:42:04.053Z,14.60
2018-04-24T11:44:31.503Z,16.17
2018-04-24T11:46:58.972Z,14.60
2018-04-24T11:49:26.431Z,15.63
2018-04-24T11:51:53.915Z,14.57
2018-04-24T11:54:21.430Z,18.20
2018-04-24T11:56:48.875Z,21.17
2018-04-24T11:59:16.355Z,18.10
2018-04-24T12:01:43.866Z,18.67
2018-04-24T12:04:11.362Z,16.13
2018-04-24T12:06:38.836Z,20.40
2018-04-24T12:09:06.325Z,16.50
2018-04-24T12:11:33.779Z,16.90
2018-04-24T12:14:02.023Z,15.27
2018-04-24T12:16:29.499Z,19.07
2018-04-24T12:18:57.721Z,19.50
2018-04-24T12:21:25.176Z,18.97
2018-04-24T12:23:52.659Z,18.43
2018-04-24T12:26:20.885Z,15.30
2018-04-24T12:28:48.340Z,13.23
2018-04-24T12:31:15.908Z,18.93
2018-04-24T12:33:43.392Z,12.00
2018-04-24T12:36:10.869Z,18.90
2018-04-24T12:38:38.344Z,16.10
2018-04-24T12:41:05.842Z,17.80
2018-04-24T12:43:33.295Z,16.20
2018-04-24T12:46:00.747Z,12.40
2018-04-24T12:48:28.994Z,16.57
2018-04-24T12:50:56.478Z,16.27
2018-04-24T12:53:23.961Z,17.67
2018-04-24T12:55:51.416Z,17.20
2018-04-24T12:58:18.900Z,16.50
2018-04-24T13:00:46.436Z,16.57
2018-04-24T13:03:13.883Z,14.20
2018-04-24T13:05:41.374Z,18.73
2018-04-24T13:08:08.835Z,12.20
2018-04-24T13:10:36.334Z,15.03
2018-04-24T13:13:03.835Z,12.53
2018-04-24T13:15:31.294Z,14.20
2018-04-24T13:17:58.781Z,10.73
2018-04-24T13:20:26.231Z,15.50
2018-04-24T13:22:53.712Z,12.57
2018-04-24T13:25:21.188Z,13.67
2018-04-24T13:27:49.431Z,12.93
2018-04-24T13:30:16.957Z,12.07
2018-04-24T13:32:44.435Z,15.50
2018-04-24T13:35:11.978Z,16.50
2018-04-24T13:37:39.426Z,14.23
2018-04-24T13:40:06.968Z,12.47
2018-04-24T13:42:35.271Z,16.67
2018-04-24T13:45:02.678Z,16.00
2018-04-24T13:47:30.155Z,16.10
2018-04-24T13:49:58.378Z,13.40
2018-04-24T13:52:25.936Z,13.97
2018-04-24T13:54:53.400Z,14.47
2018-04-24T13:57:20.891Z,16.33
2018-04-24T13:59:48.334Z,14.80
2018-04-24T14:02:15.792Z,16.27
2018-04-24T14:04:43.267Z,15.30
2018-04-24T14:07:10.785Z,11.80
2018-04-24T14:09:38.256Z,13.37
2018-04-24T14:12:05.741Z,12.60
2018-04-24T14:14:33.226Z,12.53
2018-04-24T14:17:01.469Z,14.13
2018-04-24T14:19:28.939Z,12.77
2018-04-24T14:21:56.447Z,11.90
2018-04-24T14:24:24.007Z,14.27
2018-04-24T14:26:51.519Z,13.07
2018-04-24T14:29:19.000Z,13.70
2018-04-24T14:31:47.251Z,16.50
2018-04-24T14:34:14.701Z,16.37
2018-04-24T14:36:42.189Z,15.77
2018-04-24T14:39:10.454Z,16.43
2018-04-24T14:41:37.941Z,14.67
2018-04-24T14:44:05.420Z,17.53
2018-04-24T14:46:32.891Z,17.43
2018-04-24T14:49:00.401Z,15.77
2018-04-24T14:51:28.641Z,17.00
2018-04-24T14:53:56.108Z,16.27
2018-04-24T14:56:23.629Z,18.00
2018-04-24T14:58:51.147Z,16.47
2018-04-24T15:01:19.399Z,14.17
2018-04-24T15:03:46.868Z,16.27
2018-04-24T15:06:14.385Z,17.10
2018-04-24T15:08:41.984Z,17.00
2018-04-24T15:11:09.469Z,15.67
2018-04-24T15:13:37.720Z,16.13
2018-04-24T15:16:05.177Z,15.87
2018-04-24T15:18:32.686Z,13.60
2018-04-24T15:21:00.194Z,12.87
2018-04-24T15:23:27.730Z,14.00
2018-04-24T15:25:55.232Z,14.10
2018-04-24T15:28:23.476Z,14.60
2018-04-24T15:30:50.956Z,13.37
2018-04-24T15:33:18.458Z,12.77
2018-04-24T15:35:45.969Z,13.93
2018-04-24T15:38:13.423Z,14.77
2018-04-24T15:40:40.907Z,14.23
2018-04-24T15:43:09.145Z,12.67
2018-04-24T15:45:36.632Z,15.67
2018-04-24T15:48:04.107Z,14.60
2018-04-24T15:50:31.568Z,14.30
2018-04-24T15:52:59.020Z,15.73
2018-04-24T15:55:26.489Z,14.60
2018-04-24T15:57:54.005Z,14.63
2018-04-24T16:00:21.478Z,13.70
2018-04-24T16:02:48.980Z,13.60
2018-04-24T16:05:16.421Z,13.13
2018-04-24T16:07:43.896Z,16.00
2018-04-24T16:10:11.474Z,14.17
2018-04-24T16:12:38.915Z,15.70
2018-04-24T16:15:06.426Z,15.30
2018-04-24T16:17:33.879Z,14.93
2018-04-24T16:20:01.375Z,14.67
2018-04-24T16:22:28.830Z,12.77
2018-04-24T16:24:56.331Z,13.90
2018-04-24T16:27:23.841Z,13.80
2018-04-24T16:29:51.556Z,15.07
2018-04-24T16:32:18.949Z,13.60
2018-04-24T16:34:46.533Z,13.20
2018-04-24T16:37:14.220Z,12.80
2018-04-24T16:39:41.826Z,13.30
2018-04-24T16:42:09.448Z,14.20
2018-04-24T16:44:36.990Z,13.33
2018-04-24T16:47:04.554Z,13.20
2018-04-24T16:49:32.187Z,13.37
2018-04-24T16:51:59.651Z,12.37
2018-04-24T16:54:27.211Z,12.50
2018-04-24T16:56:54.613Z,12.70
2018-04-24T16:59:22.208Z,11.47
2018-04-24T17:01:49.898Z,12.07
2018-04-24T17:04:18.188Z,12.40
2018-04-24T17:06:45.740Z,11.70
2018-04-24T17:09:13.219Z,10.80
2018-04-24T17:11:40.723Z,11.83
2018-04-24T17:14:08.205Z,12.30
2018-04-24T17:16:36.445Z,11.20
2018-04-24T17:19:03.990Z,10.90
2018-04-24T17:21:31.618Z,10.97
2018-04-24T17:23:59.244Z,10.00
2018-04-24T17:26:26.699Z,11.37
2018-04-24T17:28:54.215Z,10.73
2018-04-24T17:31:21.840Z,9.73
2018-04-24T17:33:49.322Z,9.47
2018-04-24T17:36:16.842Z,10.80
2018-04-24T17:38:44.445Z,11.00
2018-04-24T17:41:11.999Z,11.30
2018-04-24T17:43:39.500Z,11.70
2018-04-24T17:46:07.207Z,9.30
2018-04-24T17:48:34.699Z,10.50
2018-04-24T17:51:02.160Z,10.40
2018-04-24T17:53:29.640Z,9.70
2018-04-24T17:55:57.098Z,11.27
2018-04-24T17:58:24.585Z,9.93
2018-04-24T18:00:52.836Z,9.90
2018-04-24T18:03:20.381Z,11.43
2018-04-24T18:05:47.861Z,9.90
2018-04-24T18:08:15.423Z,8.90
2018-04-24T18:10:42.923Z,10.20
2018-04-24T18:13:10.429Z,10.13
2018-04-24T18:15:37.924Z,9.10
2018-04-24T18:18:05.383Z,10.00
2018-04-24T18:20:32.918Z,9.33
2018-04-24T18:23:00.409Z,9.60
2018-04-24T18:25:28.643Z,10.03
2018-04-24T18:27:56.103Z,9.23
2018-04-24T18:30:24.361Z,9.50
2018-04-24T18:32:52.589Z,10.70
2018-04-24T18:35:20.069Z,10.30
2018-04-24T18:37:47.528Z,9.40
2018-04-24T18:40:15.109Z,9.73
2018-04-24T18:42:42.545Z,10.00
2018-04-24T18:45:10.002Z,9.67
2018-04-24T18:47:37.480Z,10.40
2018-04-24T18:50:04.959Z,9.43
2018-04-24T18:52:32.416Z,10.33
2018-04-24T18:55:00.556Z,10.77
2018-04-24T18:57:28.049Z,9.33
2018-04-24T18:59:55.512Z,10.83
2018-04-24T19:02:24.037Z,9.77
2018-04-24T19:04:51.654Z,9.90
2018-04-24T19:07:19.377Z,9.93
2018-04-24T19:09:46.896Z,10.67
2018-04-24T19:12:14.371Z,10.20
2018-04-24T19:14:42.591Z,10.40
2018-04-24T19:17:10.062Z,9.80
2018-04-24T19:19:37.566Z,9.93
2018-04-24T19:22:05.807Z,9.77
2018-04-24T19:24:39.806Z,12.40
2018-04-24T19:27:08.046Z,9.67
2018-04-24T19:29:35.523Z,10.50
2018-04-24T19:32:08.746Z,10.50
2018-04-24T19:34:36.202Z,9.93
2018-04-24T19:37:03.691Z,9.00
2018-04-24T19:39:37.491Z,10.60
2018-04-24T19:42:04.974Z,10.43
2018-04-24T19:44:33.207Z,9.33
2018-04-24T19:47:00.667Z,9.70
2018-04-24T19:49:34.580Z,9.30
2018-04-24T19:52:01.993Z,10.33
2018-04-24T19:54:29.478Z,9.20
2018-04-24T19:56:56.934Z,9.63
2018-04-24T19:59:24.400Z,10.00
2018-04-24T20:01:51.878Z,10.37
2018-04-24T20:04:19.360Z,10.23
2018-04-24T20:06:47.588Z,9.27
2018-04-24T20:09:15.059Z,9.90
2018-04-24T20:11:42.540Z,10.20
2018-04-24T20:14:10.025Z,8.70
2018-04-24T20:16:37.515Z,9.57
2018-04-24T20:19:04.968Z,9.83
2018-04-24T20:21:32.424Z,10.30
2018-04-24T20:23:59.898Z,9.83
2018-04-24T20:26:27.355Z,9.50
2018-04-24T20:28:54.832Z,9.90
2018-04-24T20:31:22.327Z,8.87
2018-04-24T20:33:50.566Z,8.90
2018-04-24T20:36:18.024Z,9.47
2018-04-24T20:38:45.547Z,8.57
2018-04-24T20:41:13.773Z,9.00
2018-04-24T20:43:42.003Z,9.00
2018-04-24T20:46:09.451Z,9.47
2018-04-24T20:48:36.932Z,9.60
2018-04-24T20:51:04.407Z,10.63
2018-04-24T20:53:32.718Z,9.90
2018-04-24T20:56:00.181Z,10.10
2018-04-24T20:58:28.403Z,9.63
2018-04-24T21:00:55.955Z,10.70
2018-04-24T21:03:23.392Z,10.07
2018-04-24T21:05:50.871Z,12.13
2018-04-24T21:08:18.319Z,11.33
2018-04-24T21:10:45.799Z,11.40
2018-04-24T21:13:13.291Z,11.83
2018-04-24T21:15:40.719Z,11.40
2018-04-24T21:18:08.208Z,11.00
2018-04-24T21:20:35.668Z,10.60
2018-04-24T21:23:03.123Z,10.47
2018-04-24T21:25:30.610Z,12.50
2018-04-24T21:27:58.088Z,12.17
2018-04-24T21:30:25.691Z,11.80
2018-04-24T21:32:53.163Z,10.83
2018-04-24T21:35:20.658Z,11.80
2018-04-24T21:37:48.108Z,9.77
2018-04-24T21:40:15.582Z,11.10
2018-04-24T21:42:43.075Z,11.43
2018-04-24T21:45:10.553Z,12.63
2018-04-24T21:47:38.788Z,11.90
2018-04-24T21:50:06.267Z,11.07
2018-04-24T21:52:33.728Z,11.87
2018-04-24T21:55:01.219Z,11.70
2018-04-24T21:57:29.452Z,10.40
2018-04-24T21:59:56.939Z,12.17
2018-04-24T22:02:24.416Z,11.93
2018-04-24T22:04:52.638Z,11.27
2018-04-24T22:07:20.137Z,11.70
2018-04-24T22:09:48.355Z,10.73
2018-04-24T22:12:15.815Z,9.83
2018-04-24T22:14:43.288Z,10.03
2018-04-24T22:17:10.763Z,11.57
2018-04-24T22:19:38.235Z,10.20
2018-04-24T22:22:05.711Z,9.00
2018-04-24T22:24:33.154Z,10.40
2018-04-24T22:27:00.714Z,9.40
2018-04-24T22:29:28.155Z,10.10
2018-04-24T22:31:55.603Z,8.70
2018-04-24T22:34:23.075Z,6.37
2018-04-24T22:36:50.562Z,10.00
2018-04-24T22:39:18.788Z,9.53
2018-04-24T22:41:46.275Z,9.00
2018-04-24T22:44:13.760Z,9.10
2018-04-24T22:46:41.987Z,9.40
2018-04-24T22:49:09.551Z,10.17
2018-04-24T22:51:36.999Z,9.60
2018-04-24T22:54:04.456Z,9.17
2018-04-24T22:56:31.989Z,9.10
2018-04-24T22:58:59.463Z,11.17
2018-04-24T23:01:26.920Z,9.37
2018-04-24T23:03:54.400Z,10.13
2018-04-24T23:06:21.880Z,8.60
2018-04-24T23:08:49.343Z,9.63
2018-04-24T23:11:29.420Z,9.17
2018-04-24T23:14:08.771Z,8.90
2018-04-24T23:16:48.156Z,8.17
2018-04-24T23:19:27.461Z,9.53
2018-04-24T23:21:54.480Z,9.73
2018-04-24T23:24:21.967Z,9.90
2018-04-24T23:26:49.441Z,9.30
2018-04-24T23:29:16.924Z,7.60
2018-04-24T23:31:44.392Z,7.80
2018-04-24T23:34:12.632Z,9.07
2018-04-24T23:36:40.124Z,9.30
2018-04-24T23:39:07.575Z,9.57
2018-04-24T23:41:35.032Z,10.17
2018-04-24T23:44:02.511Z,8.60
2018-04-24T23:46:30.757Z,8.80
2018-04-24T23:48:58.207Z,9.50
2018-04-24T23:51:25.819Z,10.03
2018-04-24T23:53:53.267Z,9.27
2018-04-24T23:56:21.523Z,9.90
2018-04-24T23:58:48.983Z,10.10
